createdAt,value
2022-09-06T00:02:20.213Z,101326.66
2022-09-06T00:04:49.895Z,101331.31
2022-09-06T00:07:17.658Z,101326.75
2022-09-06T00:09:45.380Z,101339.34
2022-09-06T00:12:13.113Z,101339.50
2022-09-06T00:14:40.878Z,101331.63
2022-09-06T00:17:08.684Z,101331.69
2022-09-06T00:19:36.371Z,101334.66
2022-09-06T00:22:05.546Z,101342.50
2022-09-06T00:24:33.417Z,101339.25
2022-09-06T00:27:01.365Z,101332.88
2022-09-06T00:29:29.081Z,101329.13
2022-09-06T00:31:56.797Z,101331.06
2022-09-06T00:34:24.534Z,101334.97
2022-09-06T00:36:52.298Z,101343.22
2022-09-06T00:39:21.518Z,101342.41
2022-09-06T00:41:49.267Z,101344.97
2022-09-06T00:44:17.045Z,101344.84
2022-09-06T00:46:47.519Z,101346.50
2022-09-06T00:49:24.152Z,101351.81
2022-09-06T00:51:54.701Z,101343.94
2022-09-06T00:54:24.114Z,101358.53
2022-09-06T00:56:51.854Z,101375.59
2022-09-06T00:59:19.741Z,101379.84
2022-09-06T01:01:47.530Z,101370.66
2022-09-06T01:04:15.733Z,101375.25
2022-09-06T01:06:56.147Z,101368.00
2022-09-06T01:09:38.599Z,101361.56
2022-09-06T01:12:13.778Z,101364.44
2022-09-06T01:14:54.655Z,101373.88
2022-09-06T01:17:35.322Z,101384.94
2022-09-06T01:20:33.689Z,101388.59
2022-09-06T01:23:35.030Z,101388.53
2022-09-06T01:26:23.819Z,101393.19
2022-09-06T01:28:54.950Z,101409.59
2022-09-06T01:31:30.002Z,101410.38
2022-09-06T01:34:12.581Z,101417.59
2022-09-06T01:37:06.232Z,101413.94
2022-09-06T01:39:34.808Z,101406.72
2022-09-06T01:42:09.072Z,101419.31
2022-09-06T01:44:40.862Z,101418.44
2022-09-06T01:47:21.089Z,101421.16
2022-09-06T01:50:04.644Z,101414.81
2022-09-06T01:52:36.814Z,101412.16
2022-09-06T01:55:12.351Z,101407.03
2022-09-06T01:57:56.394Z,101407.97
2022-09-06T02:00:26.166Z,101415.28
2022-09-06T02:03:04.237Z,101415.19
2022-09-06T02:05:37.109Z,101416.06
2022-09-06T02:08:11.973Z,101421.44
2022-09-06T02:10:43.900Z,101419.75
2022-09-06T02:13:14.388Z,101419.81
2022-09-06T02:15:48.862Z,101411.72
2022-09-06T02:18:21.610Z,101409.97
2022-09-06T02:20:53.014Z,101400.13
2022-09-06T02:23:24.334Z,101392.91
2022-09-06T02:25:55.842Z,101383.19
2022-09-06T02:28:24.067Z,101378.97
2022-09-06T02:30:59.170Z,101372.94
2022-09-06T02:33:30.031Z,101369.72
2022-09-06T02:36:03.722Z,101376.34
2022-09-06T02:38:34.083Z,101374.56
2022-09-06T02:41:02.172Z,101372.78
2022-09-06T02:43:29.905Z,101371.97
2022-09-06T02:45:59.023Z,101374.84
2022-09-06T02:48:26.858Z,101371.31
2022-09-06T02:50:54.653Z,101361.53
2022-09-06T02:53:22.375Z,101352.56
2022-09-06T02:55:50.255Z,101353.59
2022-09-06T02:58:18.018Z,101345.72
2022-09-06T03:00:45.948Z,101347.63
2022-09-06T03:03:15.150Z,101346.91
2022-09-06T03:05:43.431Z,101337.97
2022-09-06T03:08:11.117Z,101318.06
2022-09-06T03:10:39.013Z,101320.13
2022-09-06T03:13:07.023Z,101314.59
2022-09-06T03:15:34.747Z,101313.72
2022-09-06T03:18:02.433Z,101296.53
2022-09-06T03:20:36.381Z,101289.34
2022-09-06T03:23:04.764Z,101276.69
2022-09-06T03:25:32.642Z,101273.16
2022-09-06T03:28:00.370Z,101286.84
2022-09-06T03:30:28.123Z,101284.19
2022-09-06T03:32:55.886Z,101298.66
2022-09-06T03:35:23.573Z,101303.31
2022-09-06T03:37:52.597Z,101314.97
2022-09-06T03:40:20.371Z,101311.31
2022-09-06T03:42:48.185Z,101307.56
2022-09-06T03:45:15.986Z,101302.06
2022-09-06T03:47:43.669Z,101311.16
2022-09-06T03:50:11.430Z,101316.66
2022-09-06T03:52:39.381Z,101314.09
2022-09-06T03:55:09.461Z,101318.94
2022-09-06T03:57:37.159Z,101329.81
2022-09-06T04:00:05.918Z,101332.72
2022-09-06T04:02:33.678Z,101331.03
2022-09-06T04:05:01.400Z,101330.19
2022-09-06T04:07:29.098Z,101327.47
2022-09-06T04:09:57.003Z,101325.59
2022-09-06T04:12:26.131Z,101318.44
2022-09-06T04:14:53.799Z,101308.50
2022-09-06T04:17:21.502Z,101311.22
2022-09-06T04:19:49.200Z,101305.75
2022-09-06T04:22:16.897Z,101298.47
2022-09-06T04:24:44.619Z,101304.84
2022-09-06T04:27:12.285Z,101306.69
2022-09-06T04:29:41.379Z,101304.25
2022-09-06T04:32:09.115Z,101319.50
2022-09-06T04:34:36.905Z,101323.94
2022-09-06T04:37:04.711Z,101322.03
2022-09-06T04:39:32.421Z,101309.47
2022-09-06T04:42:00.121Z,101312.28
2022-09-06T04:44:27.799Z,101316.72
2022-09-06T04:47:09.517Z,101321.28
2022-09-06T04:49:37.524Z,101328.66
2022-09-06T04:52:05.347Z,101332.31
2022-09-06T04:54:33.221Z,101335.75
2022-09-06T04:57:00.937Z,101334.81
2022-09-06T04:59:28.668Z,101334.81
2022-09-06T05:01:56.486Z,101324.06
2022-09-06T05:04:25.639Z,101330.47
2022-09-06T05:07:02.028Z,101331.44
2022-09-06T05:09:30.175Z,101328.75
2022-09-06T05:11:58.054Z,101337.13
2022-09-06T05:14:25.801Z,101340.78
2022-09-06T05:16:54.373Z,101341.75
2022-09-06T05:19:22.634Z,101348.94
2022-09-06T05:21:55.787Z,101352.56
2022-09-06T05:24:23.498Z,101350.84
2022-09-06T05:26:51.289Z,101349.91
2022-09-06T05:29:18.983Z,101350.78
2022-09-06T05:31:46.791Z,101349.91
2022-09-06T05:34:15.084Z,101357.09
2022-09-06T05:36:42.972Z,101362.53
2022-09-06T05:39:12.359Z,101367.91
2022-09-06T05:41:40.345Z,101365.25
2022-09-06T05:44:08.154Z,101363.50
2022-09-06T05:57:22.757Z,101353.50
2022-09-06T05:59:51.042Z,101365.06
2022-09-06T06:02:19.040Z,101355.81
2022-09-06T06:04:47.131Z,101355.69
2022-09-06T06:07:15.548Z,101361.84
2022-09-06T06:09:43.366Z,101365.34
2022-09-06T06:12:11.492Z,101367.78
2022-09-06T06:14:41.073Z,101366.69
2022-09-06T06:17:08.858Z,101372.06
2022-09-06T06:19:37.473Z,101372.59
2022-09-06T06:22:05.429Z,101365.25
2022-09-06T06:24:33.293Z,101356.81
2022-09-06T06:27:01.069Z,101355.78
2022-09-06T06:29:28.886Z,101347.44
2022-09-06T06:31:58.129Z,101356.53
2022-09-06T06:34:26.183Z,101357.41
2022-09-06T06:36:53.991Z,101353.66
2022-09-06T06:39:22.055Z,101352.56
2022-09-06T06:41:50.804Z,101353.28
2022-09-06T06:44:18.595Z,101345.06
2022-09-06T06:46:46.400Z,101344.94
2022-09-06T06:49:15.750Z,101343.84
2022-09-06T06:51:43.605Z,101340.88
2022-09-06T06:54:11.488Z,101338.88
2022-09-06T06:56:42.124Z,101341.38
2022-09-06T06:59:10.053Z,101338.31
2022-09-06T07:01:39.182Z,101339.78
2022-09-06T07:04:08.739Z,101335.97
2022-09-06T07:12:26.238Z,101338.56
2022-09-06T07:14:54.045Z,101338.22
2022-09-06T07:17:21.945Z,101336.13
2022-09-06T07:22:39.375Z,101343.59
2022-09-06T07:25:09.063Z,101336.13
2022-09-06T07:27:52.338Z,101337.66
2022-09-06T07:30:20.929Z,101340.97
2022-09-06T07:32:48.866Z,101341.63
2022-09-06T07:35:16.876Z,101343.22
2022-09-06T07:37:53.058Z,101344.66
2022-09-06T07:40:20.884Z,101350.50
2022-09-06T07:42:48.880Z,101334.88
2022-09-06T07:45:17.038Z,101340.81
2022-09-06T07:48:00.171Z,101338.53
2022-09-06T07:53:27.782Z,101331.47
2022-09-06T07:55:59.705Z,101342.03
2022-09-06T07:58:27.641Z,101343.56
2022-09-06T08:00:55.481Z,101340.56
2022-09-06T08:03:23.415Z,101352.84
2022-09-06T08:11:25.105Z,101342.50
2022-09-06T08:13:54.752Z,101351.06
2022-09-06T08:16:24.176Z,101335.31
2022-09-06T08:18:53.535Z,101347.63
2022-09-06T08:21:23.770Z,101346.31
2022-09-06T08:23:56.603Z,101341.44
2022-09-06T08:26:26.051Z,101346.47
2022-09-06T08:29:00.120Z,101340.66
2022-09-06T08:31:29.045Z,101340.31
2022-09-06T08:33:57.852Z,101340.94
2022-09-06T08:36:27.259Z,101331.50
2022-09-06T08:38:56.525Z,101327.44
2022-09-06T08:41:29.394Z,101329.88
2022-09-06T08:46:55.438Z,101333.53
2022-09-06T08:49:23.606Z,101334.22
2022-09-06T08:52:19.699Z,101328.47
2022-09-06T08:54:55.418Z,101330.06
2022-09-06T08:57:40.393Z,101319.72
2022-09-06T09:00:11.871Z,101322.38
2022-09-06T09:02:44.619Z,101321.97
2022-09-06T09:05:21.827Z,101321.81
2022-09-06T09:08:01.008Z,101317.72
2022-09-06T09:10:32.705Z,101319.19
2022-09-06T09:13:05.618Z,101311.59
2022-09-06T09:15:40.219Z,101312.06
2022-09-06T09:18:09.340Z,101314.34
2022-09-06T09:20:39.390Z,101316.66
2022-09-06T09:23:07.497Z,101311.78
2022-09-06T09:25:40.571Z,101310.41
2022-09-06T09:28:17.276Z,101310.88
2022-09-06T09:30:51.379Z,101307.66
2022-09-06T09:33:28.513Z,101298.88
2022-09-06T09:35:57.881Z,101285.78
2022-09-06T09:38:28.182Z,101290.06
2022-09-06T09:40:59.408Z,101294.66
2022-09-06T09:43:29.729Z,101285.47
2022-09-06T09:46:16.772Z,101286.25
2022-09-06T09:49:00.317Z,101285.94
2022-09-06T09:51:29.046Z,101287.59
2022-09-06T09:53:58.217Z,101281.72
2022-09-06T09:56:35.715Z,101281.97
2022-09-06T09:59:04.703Z,101286.56
2022-09-06T10:01:34.176Z,101278.34
2022-09-06T10:07:08.884Z,101274.41
2022-09-06T10:09:39.764Z,101272.25
2022-09-06T10:12:09.173Z,101272.91
2022-09-06T10:14:44.162Z,101265.06
2022-09-06T10:17:20.711Z,101257.97
2022-09-06T10:19:48.925Z,101259.09
2022-09-06T10:22:30.524Z,101258.91
2022-09-06T10:25:34.233Z,101267.88
2022-09-06T10:28:31.229Z,101280.50
2022-09-06T10:31:25.371Z,101277.31
2022-09-06T10:34:03.151Z,101275.66
2022-09-06T10:36:41.520Z,101266.81
2022-09-06T10:39:26.664Z,101262.53
2022-09-06T10:42:06.965Z,101261.25
2022-09-06T10:44:54.166Z,101255.19
2022-09-06T10:47:29.029Z,101254.88
2022-09-06T10:50:00.613Z,101256.34
2022-09-06T10:52:34.527Z,101253.16
2022-09-06T10:55:05.648Z,101251.06
2022-09-06T11:00:28.745Z,101236.00
2022-09-06T11:05:54.282Z,101251.16
2022-09-06T11:11:19.047Z,101253.75
2022-09-06T11:13:47.321Z,101245.22
2022-09-06T11:16:22.233Z,101238.47
2022-09-06T11:18:55.778Z,101245.38
2022-09-06T11:21:46.713Z,101238.78
2022-09-06T11:24:17.001Z,101234.84
2022-09-06T11:26:46.702Z,101239.09
2022-09-06T11:29:23.807Z,101254.78
2022-09-06T11:34:54.392Z,101256.03
2022-09-06T11:37:27.451Z,101253.19
2022-09-06T11:43:15.470Z,101251.06
2022-09-06T11:45:47.737Z,101250.97
2022-09-06T11:49:03.484Z,101254.97
2022-09-06T11:51:37.115Z,101251.88
2022-09-06T11:54:24.333Z,101247.03
2022-09-06T11:56:58.048Z,101243.31
2022-09-06T11:59:37.119Z,101241.31
2022-09-06T12:02:07.080Z,101238.44
2022-09-06T12:05:11.938Z,101233.34
2022-09-06T12:08:25.479Z,101230.59
2022-09-06T12:11:06.068Z,101236.53
2022-09-06T12:13:36.018Z,101229.66
2022-09-06T12:16:03.959Z,101233.91
2022-09-06T12:18:58.382Z,101228.19
2022-09-06T12:21:52.284Z,101220.59
2022-09-06T12:24:55.600Z,101221.44
2022-09-06T12:27:26.758Z,101225.72
2022-09-06T12:29:59.423Z,101227.34
2022-09-06T12:32:36.578Z,101225.34
2022-09-06T12:37:57.239Z,101224.34
2022-09-06T12:40:28.473Z,101218.09
2022-09-06T12:42:56.787Z,101213.34
2022-09-06T12:45:27.556Z,101211.63
2022-09-06T12:48:06.236Z,101208.41
2022-09-06T12:50:34.187Z,101207.03
2022-09-06T12:53:03.999Z,101208.19
2022-09-06T12:55:36.472Z,101200.28
2022-09-06T12:58:07.667Z,101194.31
2022-09-06T13:00:39.480Z,101191.56
2022-09-06T13:03:21.452Z,101189.41
2022-09-06T13:05:49.463Z,101194.19
2022-09-06T13:08:25.035Z,101185.66
2022-09-06T13:10:54.319Z,101181.53
2022-09-06T13:13:25.896Z,101185.28
2022-09-06T13:15:54.482Z,101187.66
2022-09-06T13:18:27.247Z,101186.75
2022-09-06T13:20:59.321Z,101183.38
2022-09-06T13:23:26.998Z,101184.53
2022-09-06T13:25:56.806Z,101181.78
2022-09-06T13:28:29.810Z,101180.03
2022-09-06T13:31:08.023Z,101166.38
2022-09-06T13:33:37.714Z,101168.03
2022-09-06T13:36:09.151Z,101165.88
2022-09-06T13:38:41.978Z,101173.88
2022-09-06T13:41:44.429Z,101162.47
2022-09-06T13:44:21.396Z,101167.97
2022-09-06T13:46:55.141Z,101166.25
2022-09-06T13:49:23.847Z,101157.09
2022-09-06T13:51:52.763Z,101163.63
2022-09-06T13:54:20.565Z,101153.59
2022-09-06T13:56:50.016Z,101151.34
2022-09-06T13:59:18.858Z,101148.81
2022-09-06T14:01:48.725Z,101144.81
2022-09-06T14:04:21.448Z,101148.09
2022-09-06T14:06:50.054Z,101152.25
2022-09-06T14:09:17.809Z,101138.34
2022-09-06T14:11:48.173Z,101141.97
2022-09-06T14:14:18.624Z,101139.97
2022-09-06T14:16:47.581Z,101140.97
2022-09-06T14:19:16.171Z,101141.75
2022-09-06T14:21:44.405Z,101142.88
2022-09-06T14:24:12.196Z,101129.38
2022-09-06T14:26:40.157Z,101136.59
2022-09-06T14:29:08.210Z,101128.34
2022-09-06T14:31:37.465Z,101128.47
2022-09-06T14:34:05.153Z,101127.63
2022-09-06T14:36:34.555Z,101133.50
2022-09-06T14:39:03.066Z,101131.47
2022-09-06T14:41:31.248Z,101126.09
2022-09-06T14:44:00.025Z,101125.38
2022-09-06T14:46:30.048Z,101116.47
2022-09-06T14:49:01.588Z,101127.88
2022-09-06T14:51:30.895Z,101124.88
2022-09-06T14:54:00.793Z,101118.97
2022-09-06T14:56:28.586Z,101116.84
2022-09-06T14:58:57.869Z,101121.72
2022-09-06T15:01:26.886Z,101111.84
2022-09-06T15:03:57.790Z,101117.25
2022-09-06T15:06:28.626Z,101109.34
2022-09-06T15:08:59.454Z,101113.25
2022-09-06T15:11:34.279Z,101113.50
2022-09-06T15:14:02.662Z,101109.50
2022-09-06T15:16:30.425Z,101109.88
2022-09-06T15:18:58.249Z,101090.88
2022-09-06T15:21:27.455Z,101098.13
2022-09-06T15:23:55.770Z,101092.38
2022-09-06T15:26:23.601Z,101086.00
2022-09-06T15:28:51.917Z,101084.13
2022-09-06T15:31:20.315Z,101080.13
2022-09-06T15:34:23.762Z,101082.13
2022-09-06T15:36:54.532Z,101072.22
2022-09-06T15:39:22.360Z,101075.13
2022-09-06T15:41:51.567Z,101061.38
2022-09-06T15:44:21.428Z,101063.41
2022-09-06T15:46:51.084Z,101068.91
2022-09-06T15:49:26.943Z,101057.91
2022-09-06T15:52:02.302Z,101052.13
2022-09-06T15:54:47.987Z,101063.00
2022-09-06T15:57:16.794Z,101065.63
2022-09-06T15:59:44.957Z,101061.16
2022-09-06T16:02:13.233Z,101063.13
2022-09-06T16:04:41.255Z,101057.91
2022-09-06T16:07:11.602Z,101052.88
2022-09-06T16:09:39.852Z,101056.50
2022-09-06T16:12:08.523Z,101055.63
2022-09-06T16:14:36.341Z,101054.00
2022-09-06T16:17:04.412Z,101050.75
2022-09-06T16:19:32.272Z,101052.38
2022-09-06T16:22:00.933Z,101054.53
2022-09-06T16:24:30.098Z,101049.88
2022-09-06T16:26:57.928Z,101044.41
2022-09-06T16:29:26.228Z,101038.91
2022-09-06T16:31:59.551Z,101040.91
2022-09-06T16:34:27.868Z,101041.25
2022-09-06T16:36:56.987Z,101037.78
2022-09-06T16:39:24.893Z,101038.91
2022-09-06T16:41:54.141Z,101044.41
2022-09-06T16:44:21.886Z,101042.91
2022-09-06T16:46:52.911Z,101046.75
2022-09-06T16:49:21.423Z,101040.78
2022-09-06T16:51:50.605Z,101040.00
2022-09-06T16:54:19.459Z,101039.41
2022-09-06T16:56:47.596Z,101033.28
2022-09-06T16:59:17.422Z,101040.09
2022-09-06T17:01:45.694Z,101040.47
2022-09-06T17:04:13.919Z,101037.84
2022-09-06T17:06:44.419Z,101036.22
2022-09-06T17:09:14.112Z,101046.72
2022-09-06T17:11:42.441Z,101039.84
2022-09-06T17:14:10.321Z,101041.34
2022-09-06T17:16:57.237Z,101043.69
2022-09-06T17:19:25.146Z,101046.03
2022-09-06T17:21:52.965Z,101046.41
2022-09-06T17:24:21.068Z,101040.41
2022-09-06T17:26:48.875Z,101042.38
2022-09-06T17:29:16.725Z,101045.63
2022-09-06T17:31:46.132Z,101035.97
2022-09-06T17:34:13.963Z,101039.94
2022-09-06T17:36:41.754Z,101041.28
2022-09-06T17:39:13.764Z,101042.41
2022-09-06T17:41:42.375Z,101036.41
2022-09-06T17:44:11.769Z,101054.22
2022-09-06T17:46:51.967Z,101041.84
2022-09-06T17:49:30.513Z,101049.53
2022-09-06T17:51:58.446Z,101048.91
2022-09-06T17:54:26.663Z,101049.16
2022-09-06T17:56:54.553Z,101050.38
2022-09-06T17:59:22.396Z,101041.47
2022-09-06T18:01:50.186Z,101044.47
2022-09-06T18:04:19.398Z,101038.22
2022-09-06T18:06:48.624Z,101032.09
2022-09-06T18:09:18.029Z,101027.69
2022-09-06T18:11:47.153Z,101038.13
2022-09-06T18:14:17.310Z,101037.56
2022-09-06T18:16:47.221Z,101036.16
2022-09-06T18:19:15.938Z,101034.75
2022-09-06T18:21:43.764Z,101031.50
2022-09-06T18:24:13.935Z,101022.72
2022-09-06T18:26:42.840Z,101026.69
2022-09-06T18:29:22.284Z,101028.69
2022-09-06T18:31:57.750Z,101019.91
2022-09-06T18:34:43.210Z,101025.63
2022-09-06T18:37:23.200Z,101020.38
2022-09-06T18:40:20.875Z,101016.63
2022-09-06T18:43:08.220Z,101019.34
2022-09-06T18:45:36.278Z,101019.47
2022-09-06T18:48:05.412Z,101029.56
2022-09-06T18:50:34.161Z,101021.56
2022-09-06T18:53:02.049Z,101015.53
2022-09-06T18:55:31.723Z,101021.47
2022-09-06T18:57:59.850Z,101021.78
2022-09-06T19:00:27.837Z,101025.63
2022-09-06T19:02:55.620Z,101029.69
2022-09-06T19:05:23.459Z,101031.88
2022-09-06T19:07:51.248Z,101035.81
2022-09-06T19:10:19.118Z,101024.22
2022-09-06T19:12:53.024Z,101027.19
2022-09-06T19:15:21.799Z,101018.41
2022-09-06T19:17:50.381Z,101016.84
2022-09-06T19:20:18.495Z,101020.25
2022-09-06T19:22:46.399Z,101016.00
2022-09-06T19:25:14.189Z,101017.06
2022-09-06T19:27:45.569Z,101015.41
2022-09-06T19:30:17.754Z,101005.78
2022-09-06T19:32:45.574Z,101009.75
2022-09-06T19:35:15.787Z,100995.56
2022-09-06T19:37:43.647Z,100996.97
2022-09-06T19:40:23.839Z,101000.91
2022-09-06T19:42:52.179Z,100999.91
2022-09-06T19:45:21.546Z,100994.94
2022-09-06T19:47:51.207Z,101000.41
2022-09-06T19:50:21.179Z,101002.28
2022-09-06T19:52:49.417Z,100995.28
2022-09-06T19:55:17.267Z,100990.00
2022-09-06T19:57:45.083Z,100976.44
2022-09-06T20:00:14.781Z,100974.78
2022-09-06T20:02:43.959Z,100971.41
2022-09-06T20:05:11.777Z,100966.91
2022-09-06T20:07:39.767Z,100969.66
2022-09-06T20:10:08.045Z,100971.69
2022-09-06T20:12:36.447Z,100964.91
2022-09-06T20:15:04.557Z,100961.63
2022-09-06T20:17:34.353Z,100957.22
2022-09-06T20:20:04.731Z,100961.00
2022-09-06T20:22:32.753Z,100952.25
2022-09-06T20:25:00.603Z,100946.09
2022-09-06T20:27:29.870Z,100946.22
2022-09-06T20:29:59.142Z,100945.34
2022-09-06T20:32:26.960Z,100948.84
2022-09-06T20:34:54.873Z,100941.50
2022-09-06T20:37:24.106Z,100935.06
2022-09-06T20:39:52.288Z,100938.66
2022-09-06T20:42:20.227Z,100937.16
2022-09-06T20:44:48.007Z,100940.84
2022-09-06T20:47:16.065Z,100940.06
2022-09-06T20:49:44.355Z,100934.69
2022-09-06T20:52:12.201Z,100936.66
2022-09-06T20:54:41.406Z,100944.19
2022-09-06T20:57:09.280Z,100955.22
2022-09-06T20:59:37.155Z,100975.53
2022-09-06T21:02:05.517Z,100971.66
2022-09-06T21:04:33.397Z,100971.09
2022-09-06T21:07:01.316Z,100963.97
2022-09-06T21:09:29.141Z,100957.72
2022-09-06T21:11:59.053Z,100958.63
2022-09-06T21:14:27.049Z,100956.97
2022-09-06T21:16:54.830Z,100953.63
2022-09-06T21:19:22.671Z,100956.66
2022-09-06T21:21:50.478Z,100968.66
2022-09-06T21:24:18.421Z,100981.47
2022-09-06T21:26:46.433Z,100979.59
2022-09-06T21:29:15.605Z,100977.88
2022-09-06T21:31:43.530Z,100982.31
2022-09-06T21:34:16.915Z,100997.66
2022-09-06T21:36:45.940Z,100993.16
2022-09-06T21:39:14.126Z,100994.03
2022-09-06T21:41:43.618Z,100978.63
2022-09-06T21:44:12.087Z,100971.28
2022-09-06T21:46:42.050Z,100972.00
2022-09-06T21:49:12.043Z,100966.22
2022-09-06T21:51:40.007Z,100961.44
2022-09-06T21:54:07.973Z,100956.66
2022-09-06T21:56:39.092Z,100953.59
2022-09-06T21:59:07.386Z,100956.16
2022-09-06T22:01:37.050Z,100959.53
2022-09-06T22:04:08.264Z,100962.97
2022-09-06T22:06:36.707Z,100949.09
2022-09-06T22:09:07.671Z,100939.81
2022-09-06T22:11:38.765Z,100938.94
2022-09-06T22:14:08.385Z,100925.16
2022-09-06T22:16:38.636Z,100916.09
2022-09-06T22:19:09.216Z,100916.97
2022-09-06T22:21:38.577Z,100910.53
2022-09-06T22:24:08.500Z,100898.84
2022-09-06T22:26:38.134Z,100896.97
2022-09-06T22:29:10.421Z,100890.63
2022-09-06T22:31:39.082Z,100881.53
2022-09-06T22:34:08.448Z,100884.38
2022-09-06T22:36:36.878Z,100882.72
2022-09-06T22:39:05.403Z,100887.44
2022-09-06T22:41:34.163Z,100886.56
2022-09-06T22:44:02.449Z,100885.78
2022-09-06T22:46:30.706Z,100888.50
2022-09-06T22:48:58.802Z,100874.09
2022-09-06T22:51:28.197Z,100871.47
2022-09-06T22:53:56.171Z,100854.28
2022-09-06T22:56:24.424Z,100861.63
2022-09-06T22:58:52.249Z,100871.63
2022-09-06T23:01:20.158Z,100868.16
2022-09-06T23:03:48.126Z,100855.56
2022-09-06T23:06:16.106Z,100853.81
2022-09-06T23:08:45.326Z,100855.69
2022-09-06T23:11:15.615Z,100861.94
2022-09-06T23:13:44.512Z,100866.59
2022-09-06T23:16:14.486Z,100869.53
2022-09-06T23:18:42.886Z,100885.06
2022-09-06T23:21:12.824Z,100879.59
2022-09-06T23:23:41.588Z,100864.19
2022-09-06T23:26:12.882Z,100876.97
2022-09-06T23:28:40.759Z,100898.03
2022-09-06T23:31:10.729Z,100989.94
2022-09-06T23:33:38.986Z,101048.16
2022-09-06T23:36:08.271Z,101051.69
2022-09-06T23:38:37.559Z,101106.53
2022-09-06T23:41:06.624Z,101106.28
2022-09-06T23:43:35.803Z,101110.22
2022-09-06T23:46:03.786Z,101105.50
2022-09-06T23:48:31.922Z,101091.06
2022-09-06T23:51:00.055Z,101105.31
2022-09-06T23:53:27.833Z,101091.25
2022-09-06T23:55:55.730Z,101109.03
2022-09-06T23:58:23.651Z,101118.16
